Time;durP1;ratioP1;P1;durP2;ratioP2;P2;SDS_P1;SDS_P2;PMS_P1;PMS_P2;Temp;Humidity;BMP_temperature;BMP_pressure;BME280_temperature;BME280_humidity;BME280_pressure;Samples;Min_cycle;Max_cycle;Signal;HPM_P1;HPM_P2
2023/01/13 00:01:20;;;;;;;84.75;49.63;;;154.20;2252.80;;;;;;4945737;28;20027;-92
2023/01/13 00:03:46;;;;;;;81.05;48.17;;;154.10;2252.80;;;;;;4943447;29;20024;-93
2023/01/13 00:06:14;;;;;;;85.40;47.83;;;154.10;2252.80;;;;;;4942777;29;20033;-92
2023/01/13 00:08:40;;;;;;;80.93;46.00;;;154.30;2252.80;;;;;;4942366;29;20503;-93
2023/01/13 00:11:06;;;;;;;102.68;57.13;;;154.30;2252.80;;;;;;4942411;29;20027;-93
2023/01/13 00:13:34;;;;;;;100.38;57.80;;;154.30;2252.80;;;;;;4941837;29;20391;-92
2023/01/13 00:16:04;;;;;;;88.15;52.08;;;154.20;2252.80;;;;;;4942188;29;20042;-94
2023/01/13 00:18:31;;;;;;;90.10;52.53;;;154.30;2252.80;;;;;;4942356;29;20480;-92
2023/01/13 00:21:05;;;;;;;86.22;50.85;;;154.50;2252.80;;;;;;4937494;29;20023;-92
2023/01/13 00:23:33;;;;;;;81.20;47.08;;;154.50;2201.60;;;;;;4938272;29;20024;-90
2023/01/13 00:26:01;;;;;;;72.05;43.40;;;154.30;2252.80;;;;;;4941373;28;20032;-91
2023/01/13 00:50:27;;;;;;;;;;;;;;;;;;;;;
2023/01/13 00:53:17;;;;;;;76.15;43.92;;;154.20;2252.80;;;;;;4790429;30;20043;-93
2023/01/13 00:57:08;;;;;;;;;;;;;;;;;;;;;
2023/01/13 01:10:45;;;;;;;;;;;;;;;;;;;;;
2023/01/13 01:14:31;;;;;;;;;;;;;;;;;;;;;
2023/01/13 01:28:01;;;;;;;;;;;;;;;;;;;;;
2023/01/13 04:42:57;;;;;;;67.65;32.65;;;154.00;2252.80;;;;;;4951183;29;20082;-93
2023/01/13 06:45:52;;;;;;;79.28;44.08;;;153.60;2252.80;;;;;;4880022;29;20039;-92
2023/01/13 07:49:05;;;;;;;133.60;70.43;;;154.00;2252.80;;;;;;4883902;29;20044;-93
2023/01/13 08:01:37;;;;;;;104.57;60.75;;;154.20;2252.80;;;;;;4882426;29;20450;-89
2023/01/13 08:04:02;;;;;;;107.90;63.00;;;154.30;2252.80;;;;;;4866171;29;20029;-89
2023/01/13 08:06:28;;;;;;;126.05;73.32;;;154.30;2252.80;;;;;;4937494;29;20031;-89
2023/01/13 08:08:54;;;;;;;108.03;63.92;;;154.40;2252.80;;;;;;4942247;29;20030;-92
2023/01/13 08:11:20;;;;;;;117.85;68.28;;;154.30;2252.80;;;;;;4942294;29;20051;-89
2023/01/13 08:13:45;;;;;;;96.30;57.85;;;154.50;2252.80;;;;;;4942799;29;20031;-92
2023/01/13 08:16:13;;;;;;;87.45;52.40;;;154.50;2252.80;;;;;;4943273;29;20089;-93
2023/01/13 08:18:40;;;;;;;91.82;54.72;;;154.40;2252.80;;;;;;4943210;29;20134;-91
2023/01/13 08:21:16;;;;;;;104.63;59.40;;;154.40;2252.80;;;;;;4944520;29;20075;-94
2023/01/13 08:23:44;;;;;;;113.20;69.00;;;154.50;2252.80;;;;;;4929326;29;20042;-94
2023/01/13 08:26:13;;;;;;;112.30;66.68;;;154.50;2252.80;;;;;;4941929;29;20078;-91
2023/01/13 08:28:39;;;;;;;97.20;61.08;;;179.20;2252.80;;;;;;4942836;29;20031;-92
2023/01/13 08:31:12;;;;;;;96.32;64.72;;;179.20;2252.80;;;;;;4943382;29;20035;-90
2023/01/13 08:33:38;;;;;;;;;;;179.30;2252.80;;;;;;4942995;29;20435;-90
2023/01/13 08:36:06;;;;;;;90.10;54.83;;;179.30;2252.80;;;;;;4940679;29;19906;-88
2023/01/13 08:38:33;;;;;;;109.70;64.40;;;179.30;2252.80;;;;;;4941043;29;20067;-88
2023/01/13 08:41:00;;;;;;;113.70;73.50;;;179.40;2252.80;;;;;;4941375;29;20023;-92
2023/01/13 08:43:26;;;;;;;108.93;67.85;;;;;;;;;;4951975;29;20023;-90
2023/01/13 08:45:59;;;;;;;118.85;79.22;;;;;;;;;;4962495;29;20032;-90
2023/01/13 08:48:25;;;;;;;;;;;179.60;2252.80;;;;;;4962730;29;20041;-93
2023/01/13 08:50:52;;;;;;;100.15;61.80;;;179.50;2252.80;;;;;;4963053;29;19898;-91
2023/01/13 08:53:18;;;;;;;100.07;62.95;;;179.40;2252.80;;;;;;4962570;29;20027;-91
2023/01/13 08:55:44;;;;;;;90.88;60.33;;;179.20;1996.80;;;;;;4962706;29;20479;-91
2023/01/13 08:58:10;;;;;;;87.70;57.22;;;179.40;2252.80;;;;;;4962189;29;20058;-91
2023/01/13 09:00:36;;;;;;;92.93;57.95;;;179.40;2252.80;;;;;;4953997;29;20027;-92
2023/01/13 09:03:03;;;;;;;87.22;55.38;;;179.60;2252.80;;;;;;4942915;29;20023;-93
2023/01/13 09:05:30;;;;;;;91.15;58.00;;;;;;;;;;4943221;29;20140;-93
2023/01/13 09:07:56;;;;;;;65.90;44.47;;;;;;;;;;4943367;29;20023;-92
2023/01/13 09:10:22;;;;;;;72.65;46.00;;;;;;;;;;4942180;29;20051;-90
2023/01/13 09:15:51;;;;;;;69.03;46.83;;;180.00;2252.80;;;;;;4899309;29;20041;-92
2023/01/13 09:18:17;;;;;;;59.30;38.92;;;179.80;2252.80;;;;;;4929857;29;20039;-91
2023/01/13 09:20:43;;;;;;;50.95;31.08;;;179.70;1945.60;;;;;;4941154;29;20027;-93
2023/01/13 09:23:09;;;;;;;51.80;34.25;;;179.70;2252.80;;;;;;4941103;29;20054;-91
2023/01/13 09:25:37;;;;;;;65.55;41.75;;;179.70;2252.80;;;;;;4941112;29;20367;-92
2023/01/13 09:28:03;;;;;;;55.70;35.28;;;179.70;2252.80;;;;;;4940682;29;20491;-91
2023/01/13 09:30:29;;;;;;;114.05;81.55;;;179.70;2252.80;;;;;;4940912;29;20135;-91
2023/01/13 09:35:44;;;;;;;58.30;37.92;;;180.00;2252.80;;;;;;4919240;28;20039;-92
2023/01/13 09:38:10;;;;;;;63.47;40.42;;;180.00;2252.80;;;;;;4941573;29;20027;-92
2023/01/13 09:40:38;;;;;;;71.28;42.97;;;180.00;2252.80;;;;;;4940134;29;20361;-91
2023/01/13 09:46:46;;;;;;;65.80;44.70;;;204.80;2252.80;;;;;;4938184;29;20035;-90
2023/01/13 09:49:36;;;;;;;77.80;48.20;;;204.90;2252.80;;;;;;4921350;29;20066;-93
2023/01/13 09:52:06;;;;;;;66.22;43.92;;;;;;;;;;4921725;29;20495;-90
2023/01/13 09:54:41;;;;;;;62.45;39.53;;;205.20;2252.80;;;;;;4921173;29;20023;-88
2023/01/13 09:57:13;;;;;;;63.80;41.08;;;205.10;2252.80;;;;;;4921384;29;20123;-90
2023/01/13 09:59:45;;;;;;;86.15;59.25;;;205.00;2252.80;;;;;;4921802;29;20122;-94
2023/01/13 10:09:59;;;;;;;64.82;44.20;;;205.10;2252.80;;;;;;4877865;29;20033;-94
2023/01/13 10:13:18;;;;;;;89.80;63.78;;;205.10;2252.80;;;;;;4880366;29;20115;-96
2023/01/13 10:16:06;;;;;;;60.78;40.25;;;205.10;2252.80;;;;;;4944842;29;20035;-95
2023/01/13 10:19:27;;;;;;;52.00;34.53;;;205.20;2252.80;;;;;;4944302;29;20043;-95
2023/01/13 10:22:17;;;;;;;48.85;32.05;;;205.20;2252.80;;;;;;4847300;29;20029;-95
2023/01/13 10:24:49;;;;;;;55.05;36.55;;;205.20;2252.80;;;;;;4936005;29;20069;-89
2023/01/13 10:27:26;;;;;;;58.13;41.72;;;205.20;2252.80;;;;;;4939010;29;20497;-89
2023/01/13 10:29:52;;;;;;;59.03;42.47;;;205.10;2252.80;;;;;;4939682;29;20031;-93
2023/01/13 10:32:18;;;;;;;60.28;41.28;;;205.00;2252.80;;;;;;4939389;29;20395;-86
2023/01/13 10:35:00;;;;;;;56.33;38.08;;;205.00;2252.80;;;;;;4939696;29;20069;-95
2023/01/13 10:44:58;;;;;;;44.70;31.80;;;205.10;2252.80;;;;;;4861111;29;20067;-95
2023/01/13 10:47:25;;;;;;;53.70;34.88;;;205.10;2252.80;;;;;;4846151;29;20026;-94
2023/01/13 10:53:29;;;;;;;58.03;37.42;;;205.10;2252.80;;;;;;4899216;29;20039;-94
2023/01/13 10:56:05;;;;;;;53.40;33.95;;;205.10;2252.80;;;;;;4883797;29;20449;-94
2023/01/13 10:58:34;;;;;;;52.22;33.38;;;205.20;2252.80;;;;;;4883655;29;20040;-93
2023/01/13 11:01:14;;;;;;;51.03;33.83;;;230.40;2252.80;;;;;;4884019;29;20115;-93
2023/01/13 11:03:46;;;;;;;57.10;35.45;;;205.30;2252.80;;;;;;4884671;29;20124;-94
2023/01/13 11:06:27;;;;;;;68.55;39.20;;;205.30;2252.80;;;;;;4923426;29;20050;-94
2023/01/13 11:09:02;;;;;;;71.82;41.70;;;205.40;2252.80;;;;;;4924024;29;20035;-95
2023/01/13 11:12:04;;;;;;;55.88;37.08;;;205.50;2252.80;;;;;;4934955;29;20036;-92
2023/01/13 11:14:49;;;;;;;42.17;28.83;;;205.60;2252.80;;;;;;4940607;29;20047;-94
2023/01/13 11:17:37;;;;;;;47.05;30.10;;;205.50;2252.80;;;;;;4940530;29;20036;-93
2023/01/13 11:20:16;;;;;;;43.03;29.80;;;205.50;2252.80;;;;;;4939777;29;20065;-94
2023/01/13 11:22:48;;;;;;;53.15;35.50;;;205.50;2252.80;;;;;;4940702;29;20040;-93
2023/01/13 11:25:41;;;;;;;58.53;37.67;;;205.60;2252.80;;;;;;4940421;29;20100;-93
2023/01/13 11:28:32;;;;;;;48.38;34.10;;;205.70;2252.80;;;;;;4940512;29;20020;-93
2023/01/13 11:31:46;;;;;;;59.75;37.05;;;205.70;2252.80;;;;;;4928914;29;20028;-94
2023/01/13 11:37:35;;;;;;;46.33;31.13;;;230.40;2252.80;;;;;;4922358;29;20043;-94
2023/01/13 11:40:18;;;;;;;47.55;33.15;;;230.40;2252.80;;;;;;4920534;29;20048;-94
2023/01/13 11:43:17;;;;;;;55.33;38.67;;;230.50;2252.80;;;;;;4919080;29;20437;-94
2023/01/13 11:45:54;;;;;;;48.30;30.83;;;230.40;2252.80;;;;;;4918358;29;20479;-96
2023/01/13 11:48:25;;;;;;;53.28;37.25;;;230.50;2252.80;;;;;;4916919;29;20037;-93
2023/01/13 11:51:27;;;;;;;60.10;39.03;;;230.50;2252.80;;;;;;4917846;29;20484;-94
2023/01/13 11:54:02;;;;;;;55.92;35.33;;;230.60;2252.80;;;;;;4922929;29;20056;-94
2023/01/13 11:56:47;;;;;;;45.20;31.20;;;230.60;2252.80;;;;;;4916770;29;20032;-94
2023/01/13 11:59:34;;;;;;;53.28;33.88;;;230.50;2252.80;;;;;;4915771;29;20118;-94
2023/01/13 12:02:33;;;;;;;53.55;33.33;;;230.60;2252.80;;;;;;4920483;29;20020;-94
2023/01/13 12:05:34;;;;;;;39.85;30.23;;;230.60;2252.80;;;;;;4921188;29;20039;-94
2023/01/13 12:08:09;;;;;;;52.15;30.35;;;230.50;2252.80;;;;;;4899430;29;20055;-95
2023/01/13 12:11:14;;;;;;;44.45;29.15;;;230.60;2252.80;;;;;;4920590;29;20037;-96
2023/01/13 12:14:12;;;;;;;48.40;32.28;;;230.60;2252.80;;;;;;4921265;29;20028;-94
2023/01/13 12:16:48;;;;;;;43.55;31.17;;;230.80;2252.80;;;;;;4921296;29;20020;-94
2023/01/13 12:19:48;;;;;;;34.78;25.17;;;230.90;2252.80;;;;;;4923103;29;20109;-95
2023/01/13 12:22:28;;;;;;;47.72;31.98;;;230.90;2252.80;;;;;;4906351;29;20092;-94
2023/01/13 12:25:15;;;;;;;53.50;32.83;;;231.00;2252.80;;;;;;4921449;29;20532;-95
2023/01/13 12:27:55;;;;;;;49.50;31.67;;;231.20;2252.80;;;;;;4921468;29;20361;-95
2023/01/13 12:30:50;;;;;;;40.35;28.70;;;256.20;2252.80;;;;;;4921418;29;20084;-94
2023/01/13 12:33:45;;;;;;;39.13;28.80;;;256.00;2252.80;;;;;;4921121;29;20020;-95
2023/01/13 12:36:28;;;;;;;47.65;28.30;;;231.30;2252.80;;;;;;4922544;29;20020;-95
2023/01/13 12:39:28;;;;;;;45.20;28.60;;;231.20;2252.80;;;;;;4921632;29;20029;-94
2023/01/13 12:45:09;;;;;;;47.80;32.25;;;231.10;2252.80;;;;;;4932893;29;20047;-94
2023/01/13 12:47:42;;;;;;;48.45;31.77;;;231.10;2252.80;;;;;;4939450;29;20027;-94
2023/01/13 12:50:28;;;;;;;50.17;33.90;;;231.00;2252.80;;;;;;4937989;29;20039;-94
2023/01/13 12:52:59;;;;;;;52.78;36.15;;;230.90;2252.80;;;;;;4940310;29;20039;-93
2023/01/13 12:55:32;;;;;;;66.70;45.55;;;230.90;2252.80;;;;;;4938858;29;20035;-96
2023/01/13 12:58:04;;;;;;;51.10;32.97;;;230.90;2252.80;;;;;;4939494;29;20099;-94
2023/01/13 13:01:02;;;;;;;50.67;34.17;;;230.80;2252.80;;;;;;4941351;29;20020;-93
2023/01/13 13:03:35;;;;;;;62.92;38.55;;;230.70;2252.80;;;;;;4939661;29;20042;-94
2023/01/13 13:06:33;;;;;;;45.80;30.38;;;230.70;2252.80;;;;;;4938517;29;20423;-96
2023/01/13 13:09:13;;;;;;;57.22;37.10;;;230.70;2252.80;;;;;;4920584;29;20504;-96
2023/01/13 13:15:19;;;;;;;52.05;37.08;;;230.60;2252.80;;;;;;4943048;29;20051;-93
2023/01/13 13:18:32;;;;;;;46.90;33.60;;;230.50;2252.80;;;;;;4941693;29;20118;-96
2023/01/13 13:21:17;;;;;;;45.00;33.00;;;230.60;2252.80;;;;;;4949056;29;20134;-96
2023/01/13 13:23:59;;;;;;;42.65;31.30;;;230.50;2252.80;;;;;;4946103;29;20027;-94
2023/01/13 13:26:34;;;;;;;42.08;29.95;;;230.50;2252.80;;;;;;4941298;29;20032;-96
2023/01/13 13:29:36;;;;;;;41.50;30.38;;;230.40;2252.80;;;;;;4938182;29;20030;-96
2023/01/13 13:36:36;;;;;;;;;;;230.40;2252.80;;;;;;4825731;29;20122;-95
2023/01/13 13:48:49;;;;;;;61.95;38.55;;;205.60;2252.80;;;;;;4939430;29;20046;-96
2023/01/13 13:51:39;;;;;;;75.05;44.83;;;205.60;2252.80;;;;;;4936020;29;20035;-94
2023/01/13 13:54:15;;;;;;;55.38;40.05;;;205.60;2252.80;;;;;;4937480;29;20027;-95
2023/01/13 13:57:26;;;;;;;57.55;39.65;;;205.50;2252.80;;;;;;4937388;29;20035;-94
2023/01/13 14:00:40;;;;;;;52.13;35.55;;;205.50;2252.80;;;;;;4845892;29;20061;-95
2023/01/13 14:06:54;;;;;;;46.63;31.98;;;205.50;2252.80;;;;;;4919447;29;20543;-93
2023/01/13 14:09:57;;;;;;;;;;;;;;;;;;;;;
2023/01/13 14:12:26;;;;;;;48.03;32.95;;;205.50;2252.80;;;;;;4955364;28;20061;-96
2023/01/13 14:20:04;;;;;;;51.28;34.17;;;205.40;2252.80;;;;;;4875038;29;20105;-96
2023/01/13 14:22:53;;;;;;;58.08;34.97;;;205.40;2252.80;;;;;;4839067;29;20045;-96
2023/01/13 14:25:42;;;;;;;39.35;29.33;;;205.30;2252.80;;;;;;4842000;29;20042;-95
2023/01/13 14:28:41;;;;;;;40.63;29.98;;;205.30;2252.80;;;;;;4950844;29;20479;-95
2023/01/13 14:31:36;;;;;;;47.88;31.92;;;205.30;2252.80;;;;;;4940754;29;20027;-95
2023/01/13 14:34:31;;;;;;;48.13;34.45;;;205.30;2252.80;;;;;;4956860;29;20042;-95
2023/01/13 14:37:33;;;;;;;46.08;32.25;;;205.30;2252.80;;;;;;4939583;29;20031;-95
2023/01/13 14:50:45;;;;;;;49.92;32.45;;;205.30;2252.80;;;;;;4842489;29;20086;-95
2023/01/13 14:53:49;;;;;;;50.05;32.85;;;205.30;2252.80;;;;;;4831145;29;20026;-94
2023/01/13 14:57:08;;;;;;;55.88;36.05;;;205.20;2252.80;;;;;;4920324;29;20404;-95
2023/01/13 15:11:01;;;;;;;46.78;31.88;;;205.10;2252.80;;;;;;4770082;30;20043;-96
2023/01/13 15:14:40;;;;;;;47.83;33.88;;;205.00;2252.80;;;;;;4762311;29;20577;-94
2023/01/13 15:17:46;;;;;;;69.20;46.67;;;205.00;2252.80;;;;;;4805153;29;20082;-95
2023/01/13 15:23:35;;;;;;;59.45;37.50;;;204.90;2252.80;;;;;;4835935;29;20153;-95
2023/01/13 15:26:09;;;;;;;59.08;39.00;;;204.90;2252.80;;;;;;4864638;29;20025;-96
2023/01/13 15:28:35;;;;;;;61.47;40.38;;;204.90;2252.80;;;;;;4910429;29;20031;-94
2023/01/13 15:31:02;;;;;;;59.10;38.53;;;204.90;2252.80;;;;;;4935921;29;20472;-94
2023/01/13 15:33:28;;;;;;;57.60;39.35;;;204.90;2252.80;;;;;;4936529;29;20046;-95
2023/01/13 15:35:54;;;;;;;60.72;42.03;;;180.00;2252.80;;;;;;4939275;29;20027;-94
2023/01/13 15:38:24;;;;;;;75.85;50.03;;;180.10;2252.80;;;;;;4940005;29;20067;-94
2023/01/13 15:40:51;;;;;;;83.80;54.22;;;205.00;2252.80;;;;;;4940911;29;20027;-94
2023/01/13 15:46:56;;;;;;;91.97;58.63;;;204.80;2252.80;;;;;;4942387;29;20161;-94
2023/01/13 15:49:11;;;;;;;98.65;62.00;;;204.80;2252.80;;;;;;4933033;29;20036;-87
2023/01/13 15:51:38;;;;;;;115.82;69.22;;;204.80;2252.80;;;;;;4939704;29;20498;-89
2023/01/13 15:54:05;;;;;;;100.15;62.90;;;204.90;2252.80;;;;;;4938682;29;20083;-88
2023/01/13 15:56:35;;;;;;;95.85;64.63;;;204.80;2252.80;;;;;;4938974;29;20086;-90
2023/01/13 15:59:01;;;;;;;92.82;63.35;;;204.80;2252.80;;;;;;4938638;29;20380;-88
2023/01/13 16:01:26;;;;;;;131.48;88.15;;;205.20;2252.80;;;;;;4938951;29;20030;-88
2023/01/13 16:03:53;;;;;;;120.18;76.65;;;204.80;2252.80;;;;;;4939079;29;20028;-95
2023/01/13 16:06:23;;;;;;;115.97;74.82;;;204.80;2252.80;;;;;;4939325;29;20400;-90
2023/01/13 16:08:49;;;;;;;118.35;76.78;;;204.80;2252.80;;;;;;4940243;29;20024;-91
2023/01/13 16:11:15;;;;;;;124.35;83.05;;;180.10;2252.80;;;;;;4939261;29;20093;-92
2023/01/13 16:13:41;;;;;;;113.47;73.50;;;180.10;2252.80;;;;;;4938904;29;20079;-92
2023/01/13 16:16:27;;;;;;;128.15;81.38;;;180.10;2252.80;;;;;;4939539;29;20035;-94
2023/01/13 16:18:54;;;;;;;162.57;98.00;;;180.10;2252.80;;;;;;4939436;29;20476;-94
2023/01/13 16:21:20;;;;;;;170.02;105.97;;;180.10;2252.80;;;;;;4940944;29;20028;-93
2023/01/13 16:23:48;;;;;;;170.85;111.75;;;180.00;2252.80;;;;;;4939119;29;20027;-90
2023/01/13 16:26:21;;;;;;;181.23;114.85;;;180.00;2252.80;;;;;;4933781;29;20025;-94
2023/01/13 16:28:48;;;;;;;165.77;103.60;;;179.90;2252.80;;;;;;4944428;29;20023;-93
2023/01/13 16:31:33;;;;;;;180.85;101.47;;;179.80;2252.80;;;;;;4926635;29;20019;-93
2023/01/13 16:34:01;;;;;;;136.23;81.50;;;179.70;2252.80;;;;;;4930605;29;20080;-94
2023/01/13 16:36:29;;;;;;;129.55;74.20;;;179.70;2252.80;;;;;;4932946;29;20031;-93
2023/01/13 16:38:55;;;;;;;118.18;70.22;;;179.70;2252.80;;;;;;4935347;29;20028;-92
2023/01/13 16:41:23;;;;;;;102.85;64.35;;;179.70;2252.80;;;;;;4950811;29;20027;-92
2023/01/13 16:43:49;;;;;;;104.35;66.03;;;179.80;2252.80;;;;;;4935493;29;20356;-92
2023/01/13 16:46:19;;;;;;;126.45;77.93;;;179.80;2252.80;;;;;;4929443;29;20025;-92
2023/01/13 16:48:46;;;;;;;132.32;76.45;;;179.80;2252.80;;;;;;4933193;29;20044;-93
2023/01/13 16:51:12;;;;;;;130.38;77.18;;;179.70;2252.80;;;;;;4925228;29;20032;-93
2023/01/13 16:53:38;;;;;;;132.07;79.88;;;179.70;2252.80;;;;;;4925041;29;20122;-94
2023/01/13 16:56:30;;;;;;;134.02;83.68;;;179.70;2252.80;;;;;;4936575;29;20034;-93
2023/01/13 16:58:58;;;;;;;154.10;93.00;;;179.70;2252.80;;;;;;4927301;29;20111;-91
2023/01/13 17:01:27;;;;;;;140.82;85.47;;;179.70;2252.80;;;;;;4939757;29;20031;-94
2023/01/13 17:03:54;;;;;;;131.32;83.18;;;179.60;2252.80;;;;;;4923725;29;20024;-91
2023/01/13 17:06:31;;;;;;;131.57;87.05;;;179.50;2252.80;;;;;;4923080;29;20030;-92
2023/01/13 17:09:05;;;;;;;117.88;78.97;;;179.70;2252.80;;;;;;4924564;29;20031;-92
2023/01/13 17:11:31;;;;;;;129.23;86.53;;;179.70;2252.80;;;;;;4923795;29;20030;-91
2023/01/13 17:13:57;;;;;;;143.32;94.63;;;179.70;2252.80;;;;;;4935466;29;20142;-93
2023/01/13 17:16:24;;;;;;;147.10;96.82;;;179.80;2252.80;;;;;;4938615;29;20033;-92
2023/01/13 17:18:51;;;;;;;117.25;77.28;;;179.70;2252.80;;;;;;4938033;29;20075;-92
2023/01/13 17:21:17;;;;;;;101.05;65.20;;;179.70;2252.80;;;;;;4937008;29;20111;-91
2023/01/13 17:23:44;;;;;;;134.60;89.63;;;179.70;2252.80;;;;;;4922348;29;20464;-93
2023/01/13 17:26:27;;;;;;;133.27;90.88;;;179.80;2252.80;;;;;;4921546;29;20051;-86
2023/01/13 17:28:52;;;;;;;147.43;93.78;;;179.70;2252.80;;;;;;4920679;29;20063;-82
2023/01/13 17:31:18;;;;;;;148.23;97.30;;;179.70;2252.80;;;;;;4920675;29;20106;-83
2023/01/13 17:33:44;;;;;;;122.05;81.15;;;179.70;2252.80;;;;;;4921239;29;20088;-89
2023/01/13 17:36:10;;;;;;;123.78;85.03;;;179.70;2252.80;;;;;;4921108;29;20027;-90
2023/01/13 17:38:35;;;;;;;125.82;82.53;;;179.70;2252.80;;;;;;4920991;29;20492;-90
2023/01/13 17:41:03;;;;;;;161.98;101.78;;;179.80;2252.80;;;;;;4921219;29;20038;-90
2023/01/13 17:43:32;;;;;;;160.02;97.97;;;179.70;2252.80;;;;;;4921316;29;20110;-91
2023/01/13 17:45:58;;;;;;;154.07;98.32;;;179.70;2252.80;;;;;;4939897;29;20023;-88
2023/01/13 17:48:24;;;;;;;154.68;96.95;;;179.80;2252.80;;;;;;4939234;29;20032;-90
2023/01/13 17:50:51;;;;;;;93.20;59.67;;;179.70;2252.80;;;;;;4938598;29;20031;-88
2023/01/13 17:53:17;;;;;;;85.43;54.67;;;179.70;2252.80;;;;;;4939865;29;20376;-89
2023/01/13 17:55:54;;;;;;;71.38;46.97;;;179.80;2252.80;;;;;;4939748;29;20574;-86
2023/01/13 17:58:21;;;;;;;65.68;43.30;;;179.90;2252.80;;;;;;4935704;29;20031;-87
2023/01/13 18:00:48;;;;;;;69.10;40.70;;;179.70;2252.80;;;;;;4939444;29;20042;-91
2023/01/13 18:03:15;;;;;;;64.68;41.67;;;179.70;2252.80;;;;;;4940071;29;20027;-89
2023/01/13 18:05:41;;;;;;;52.83;36.75;;;179.80;2252.80;;;;;;4940163;29;20478;-91
2023/01/13 18:08:07;;;;;;;58.53;35.90;;;179.80;2252.80;;;;;;4939833;29;20066;-90
2023/01/13 18:10:34;;;;;;;64.15;42.90;;;179.80;2252.80;;;;;;4940093;29;20031;-90
2023/01/13 18:13:02;;;;;;;72.10;46.08;;;179.70;2252.80;;;;;;4939804;29;20054;-91
2023/01/13 18:15:28;;;;;;;73.03;47.22;;;179.70;2252.80;;;;;;4940211;29;20031;-93
2023/01/13 18:17:54;;;;;;;69.30;48.55;;;179.70;2252.80;;;;;;4940188;29;20059;-93
2023/01/13 18:28:33;;;;;;;67.70;45.30;;;179.80;2252.80;;;;;;4957061;29;20038;-89
2023/01/13 18:30:58;;;;;;;64.13;43.25;;;179.70;2252.80;;;;;;4939738;29;20027;-89
2023/01/13 18:33:24;;;;;;;70.63;46.03;;;179.50;2252.80;;;;;;4940011;29;20100;-88
2023/01/13 18:35:50;;;;;;;71.53;49.95;;;179.50;2252.80;;;;;;4949266;28;20475;-91
2023/01/13 18:38:20;;;;;;;67.00;47.53;;;179.60;2252.80;;;;;;4927730;29;20039;-88
2023/01/13 18:40:46;;;;;;;71.63;50.03;;;179.70;2252.80;;;;;;4933414;29;20023;-89
2023/01/13 18:43:12;;;;;;;100.25;65.97;;;179.70;2252.80;;;;;;4930674;29;20082;-91
2023/01/13 18:45:38;;;;;;;145.43;85.05;;;179.70;2252.80;;;;;;4950023;28;20426;-92
2023/01/13 18:48:04;;;;;;;132.10;82.72;;;179.50;2252.80;;;;;;4931864;29;20598;-90
2023/01/13 18:50:31;;;;;;;128.38;83.63;;;179.70;2252.80;;;;;;4954337;28;20074;-91
2023/01/13 18:52:57;;;;;;;127.63;81.18;;;179.60;2252.80;;;;;;4931234;29;20020;-91
2023/01/13 18:55:24;;;;;;;110.18;71.38;;;179.70;2252.80;;;;;;4924018;29;20543;-93
2023/01/13 18:57:51;;;;;;;92.50;59.80;;;205.30;2252.80;;;;;;4931183;28;20034;-87
2023/01/13 19:00:18;;;;;;;84.53;52.65;;;179.70;2252.80;;;;;;4937484;29;20491;-84
2023/01/13 19:02:46;;;;;;;85.78;51.92;;;179.70;2252.80;;;;;;4942596;28;20083;-92
2023/01/13 19:05:12;;;;;;;83.03;53.72;;;179.80;2252.80;;;;;;4941739;29;20126;-92
2023/01/13 19:07:38;;;;;;;94.07;60.13;;;179.80;2252.80;;;;;;4950587;28;20032;-90
2023/01/13 19:10:08;;;;;;;108.38;70.70;;;179.80;2252.80;;;;;;4960092;28;20114;-88
2023/01/13 19:12:34;;;;;;;143.85;86.22;;;179.60;2252.80;;;;;;4958351;29;20059;-88
2023/01/13 19:15:01;;;;;;;136.20;82.85;;;179.60;2252.80;;;;;;4958525;29;20435;-88
2023/01/13 19:17:31;;;;;;;127.88;79.53;;;179.50;2252.80;;;;;;4958411;29;20028;-87
2023/01/13 19:19:57;;;;;;;125.28;78.43;;;179.60;2252.80;;;;;;4958414;29;20046;-88
2023/01/13 19:22:28;;;;;;;117.20;75.05;;;179.60;2252.80;;;;;;4958571;29;20031;-88
2023/01/13 19:24:54;;;;;;;119.82;76.90;;;179.70;2252.80;;;;;;4958029;29;20027;-89
2023/01/13 19:27:20;;;;;;;104.22;68.28;;;179.70;2252.80;;;;;;4957960;29;20078;-86
2023/01/13 19:29:48;;;;;;;92.05;60.50;;;179.70;2252.80;;;;;;4958400;29;20123;-88
2023/01/13 19:32:15;;;;;;;89.18;54.67;;;179.60;2252.80;;;;;;4957375;29;20376;-87
2023/01/13 19:34:45;;;;;;;90.60;58.53;;;179.50;2252.80;;;;;;4939149;29;20380;-87
2023/01/13 19:37:11;;;;;;;130.18;76.20;;;179.50;2252.80;;;;;;4938853;29;20074;-84
2023/01/13 19:39:37;;;;;;;155.35;94.75;;;179.30;2252.80;;;;;;4938727;29;20118;-86
2023/01/13 19:47:32;;;;;;;211.45;121.85;;;179.20;2252.80;;;;;;4958063;28;20050;-87
2023/01/13 19:50:00;;;;;;;219.55;131.55;;;154.40;2252.80;;;;;;4977146;28;20031;-84
2023/01/13 19:52:25;;;;;;;219.23;132.48;;;154.40;2252.80;;;;;;4982239;28;20015;-86
2023/01/13 19:54:51;;;;;;;191.13;121.53;;;154.30;2252.80;;;;;;4982346;28;20015;-83
2023/01/13 19:57:17;;;;;;;181.35;112.72;;;154.30;2252.80;;;;;;4979774;28;20058;-86
2023/01/13 19:59:43;;;;;;;212.00;123.07;;;154.30;2252.80;;;;;;4957988;29;20031;-87
2023/01/13 20:02:14;;;;;;;206.88;118.35;;;154.40;2252.80;;;;;;4958244;29;20041;-87
2023/01/13 20:04:43;;;;;;;199.00;119.38;;;154.50;2252.80;;;;;;4957903;29;20050;-86
2023/01/13 20:07:12;;;;;;;182.45;109.60;;;154.50;2252.80;;;;;;4951492;29;20027;-87
2023/01/13 20:09:38;;;;;;;170.10;103.15;;;154.50;2252.80;;;;;;4957548;29;20091;-87
2023/01/13 20:12:13;;;;;;;162.55;99.13;;;179.20;2252.80;;;;;;4958337;28;20054;-86
2023/01/13 20:14:40;;;;;;;186.02;102.95;;;179.30;2252.80;;;;;;4961154;28;20046;-87
2023/01/13 20:17:06;;;;;;;179.57;105.85;;;154.50;2252.80;;;;;;4960723;28;20038;-87
2023/01/13 20:19:32;;;;;;;155.48;97.15;;;154.30;2252.80;;;;;;4960466;28;20031;-86
2023/01/13 20:21:58;;;;;;;148.90;96.13;;;154.40;2252.80;;;;;;4959422;28;20038;-86
2023/01/13 20:24:25;;;;;;;156.20;96.32;;;154.50;2252.80;;;;;;4960650;28;20023;-88
2023/01/13 20:26:52;;;;;;;365.73;188.05;;;154.50;2252.80;;;;;;4960299;28;20114;-89
2023/01/13 20:29:19;;;;;;;217.45;128.18;;;154.40;2252.80;;;;;;4960368;28;20034;-89
2023/01/13 20:31:46;;;;;;;235.55;132.68;;;154.40;2252.80;;;;;;4960692;28;20065;-90
2023/01/13 20:34:13;;;;;;;217.07;129.63;;;154.50;2252.80;;;;;;4960681;28;20027;-90
2023/01/13 20:36:42;;;;;;;193.25;110.97;;;154.40;2252.80;;;;;;4960695;28;20034;-90
2023/01/13 20:39:14;;;;;;;158.55;96.65;;;154.40;2252.80;;;;;;4951512;29;20073;-86
2023/01/13 20:44:24;;;;;;;163.73;104.30;;;154.40;2252.80;;;;;;4958148;29;20431;-88
2023/01/13 20:46:53;;;;;;;217.40;140.05;;;154.40;2252.80;;;;;;4940807;29;20035;-86
2023/01/13 20:49:19;;;;;;;241.43;154.32;;;154.40;2252.80;;;;;;4940636;29;20126;-86
2023/01/13 20:51:45;;;;;;;238.43;151.90;;;154.30;2252.80;;;;;;4940825;29;20050;-86
2023/01/13 20:54:11;;;;;;;285.27;176.27;;;154.30;2252.80;;;;;;4940794;29;20027;-87
2023/01/13 20:56:39;;;;;;;278.38;177.77;;;154.20;2252.80;;;;;;4940690;29;20031;-89
2023/01/13 20:59:05;;;;;;;269.95;172.32;;;154.10;2252.80;;;;;;4940578;29;20075;-85
2023/01/13 21:01:31;;;;;;;264.67;169.57;;;154.10;2252.80;;;;;;4940514;29;20042;-86
2023/01/13 21:03:58;;;;;;;250.43;155.35;;;154.20;2252.80;;;;;;4940745;29;20529;-89
2023/01/13 21:06:26;;;;;;;357.60;216.75;;;154.30;2252.80;;;;;;4941076;29;20027;-88
2023/01/13 21:08:53;;;;;;;356.35;218.77;;;154.20;2252.80;;;;;;4940767;29;20557;-89
2023/01/13 21:17:00;;;;;;;413.02;261.02;;;154.00;2252.80;;;;;;4957475;29;20041;-90
2023/01/13 21:19:26;;;;;;;403.88;265.60;;;153.90;2252.80;;;;;;4940485;29;20027;-88
2023/01/13 21:21:52;;;;;;;409.92;264.92;;;153.80;2252.80;;;;;;4939347;28;20091;-90
2023/01/13 21:24:17;;;;;;;422.05;276.27;;;153.80;2252.80;;;;;;4941582;29;20062;-88
2023/01/13 21:26:43;;;;;;;398.08;266.90;;;153.80;2252.80;;;;;;4936510;29;20027;-91
2023/01/13 21:29:09;;;;;;;387.83;258.50;;;153.80;2252.80;;;;;;4936831;29;20040;-84
2023/01/13 21:31:38;;;;;;;393.10;288.33;;;153.80;2252.80;;;;;;4939954;29;20020;-89
2023/01/13 21:34:04;;;;;;;370.20;270.10;;;153.60;2252.80;;;;;;4945707;29;20027;-91
2023/01/13 21:36:30;;;;;;;335.23;238.18;;;128.90;2252.80;;;;;;4937722;29;20031;-89